sensor_id;sensor_type;location;lat;lon;timestamp;P1;durP1;ratioP1;P2;durP2;ratioP2
53710;SDS011;39605;52.704;6.752;2023-06-14T00:02:07;3.70;;;0.40;;
53710;SDS011;39605;52.704;6.752;2023-06-14T00:04:34;2.22;;;0.50;;
53710;SDS011;39605;52.704;6.752;2023-06-14T00:07:00;2.88;;;0.60;;
53710;SDS011;39605;52.704;6.752;2023-06-14T00:09:26;3.70;;;0.50;;
53710;SDS011;39605;52.704;6.752;2023-06-14T00:11:52;5.05;;;0.80;;
53710;SDS011;39605;52.704;6.752;2023-06-14T00:14:18;4.10;;;0.70;;
53710;SDS011;39605;52.704;6.752;2023-06-14T00:16:45;3.05;;;0.65;;
53710;SDS011;39605;52.704;6.752;2023-06-14T00:19:11;3.65;;;0.50;;
53710;SDS011;39605;52.704;6.752;2023-06-14T00:21:37;1.25;;;0.52;;
53710;SDS011;39605;52.704;6.752;2023-06-14T00:24:03;5.13;;;0.57;;
53710;SDS011;39605;52.704;6.752;2023-06-14T00:26:30;2.83;;;0.50;;
53710;SDS011;39605;52.704;6.752;2023-06-14T00:28:56;3.58;;;0.93;;
53710;SDS011;39605;52.704;6.752;2023-06-14T00:31:22;2.95;;;0.60;;
53710;SDS011;39605;52.704;6.752;2023-06-14T00:33:48;1.65;;;0.50;;
53710;SDS011;39605;52.704;6.752;2023-06-14T00:36:15;2.03;;;0.63;;
53710;SDS011;39605;52.704;6.752;2023-06-14T00:38:41;1.95;;;0.50;;
53710;SDS011;39605;52.704;6.752;2023-06-14T00:41:07;3.58;;;0.63;;
53710;SDS011;39605;52.704;6.752;2023-06-14T00:43:33;1.85;;;0.45;;
53710;SDS011;39605;52.704;6.752;2023-06-14T00:46:00;3.15;;;0.68;;
53710;SDS011;39605;52.704;6.752;2023-06-14T00:48:26;3.83;;;0.80;;
53710;SDS011;39605;52.704;6.752;2023-06-14T00:50:53;1.45;;;0.60;;
53710;SDS011;39605;52.704;6.752;2023-06-14T00:53:20;1.83;;;0.70;;
53710;SDS011;39605;52.704;6.752;2023-06-14T00:55:48;3.90;;;1.13;;
53710;SDS011;39605;52.704;6.752;2023-06-14T00:58:14;2.92;;;0.55;;
53710;SDS011;39605;52.704;6.752;2023-06-14T01:00:40;1.58;;;0.50;;
53710;SDS011;39605;52.704;6.752;2023-06-14T01:03:07;2.45;;;0.73;;
53710;SDS011;39605;52.704;6.752;2023-06-14T01:05:37;3.60;;;0.80;;
53710;SDS011;39605;52.704;6.752;2023-06-14T01:13:23;2.10;;;0.60;;
53710;SDS011;39605;52.704;6.752;2023-06-14T01:15:49;1.77;;;0.55;;
53710;SDS011;39605;52.704;6.752;2023-06-14T01:18:17;2.50;;;0.60;;
53710;SDS011;39605;52.704;6.752;2023-06-14T01:20:44;2.80;;;0.55;;
53710;SDS011;39605;52.704;6.752;2023-06-14T01:23:12;5.35;;;0.80;;
53710;SDS011;39605;52.704;6.752;2023-06-14T01:25:38;4.10;;;0.68;;
53710;SDS011;39605;52.704;6.752;2023-06-14T01:28:06;1.15;;;0.43;;
53710;SDS011;39605;52.704;6.752;2023-06-14T01:30:35;2.42;;;0.55;;
53710;SDS011;39605;52.704;6.752;2023-06-14T01:33:02;2.80;;;0.60;;
53710;SDS011;39605;52.704;6.752;2023-06-14T01:35:30;2.42;;;0.70;;
53710;SDS011;39605;52.704;6.752;2023-06-14T01:37:56;3.78;;;0.70;;
53710;SDS011;39605;52.704;6.752;2023-06-14T01:40:23;2.92;;;0.77;;
53710;SDS011;39605;52.704;6.752;2023-06-14T01:42:50;6.03;;;0.63;;
53710;SDS011;39605;52.704;6.752;2023-06-14T01:45:16;5.43;;;0.60;;
53710;SDS011;39605;52.704;6.752;2023-06-14T01:47:43;2.17;;;0.50;;
53710;SDS011;39605;52.704;6.752;2023-06-14T01:50:10;3.35;;;0.88;;
53710;SDS011;39605;52.704;6.752;2023-06-14T01:52:37;5.07;;;0.90;;
53710;SDS011;39605;52.704;6.752;2023-06-14T01:55:06;4.00;;;0.80;;
53710;SDS011;39605;52.704;6.752;2023-06-14T01:57:33;2.92;;;0.63;;
53710;SDS011;39605;52.704;6.752;2023-06-14T01:59:59;3.55;;;0.77;;
53710;SDS011;39605;52.704;6.752;2023-06-14T02:02:25;3.75;;;0.60;;
53710;SDS011;39605;52.704;6.752;2023-06-14T02:04:52;2.75;;;0.52;;
53710;SDS011;39605;52.704;6.752;2023-06-14T02:07:18;2.80;;;0.70;;
53710;SDS011;39605;52.704;6.752;2023-06-14T02:09:44;2.08;;;0.68;;
53710;SDS011;39605;52.704;6.752;2023-06-14T02:12:10;1.20;;;0.60;;
53710;SDS011;39605;52.704;6.752;2023-06-14T02:14:36;2.42;;;0.70;;
53710;SDS011;39605;52.704;6.752;2023-06-14T02:17:03;1.58;;;0.60;;
53710;SDS011;39605;52.704;6.752;2023-06-14T02:19:32;4.32;;;1.00;;
53710;SDS011;39605;52.704;6.752;2023-06-14T02:21:58;3.20;;;0.50;;
53710;SDS011;39605;52.704;6.752;2023-06-14T02:24:27;0.93;;;0.60;;
53710;SDS011;39605;52.704;6.752;2023-06-14T02:26:53;2.97;;;0.60;;
53710;SDS011;39605;52.704;6.752;2023-06-14T02:29:19;2.75;;;0.60;;
53710;SDS011;39605;52.704;6.752;2023-06-14T02:31:46;3.72;;;0.73;;
53710;SDS011;39605;52.704;6.752;2023-06-14T02:34:13;7.28;;;0.95;;
53710;SDS011;39605;52.704;6.752;2023-06-14T02:36:42;4.90;;;0.90;;
53710;SDS011;39605;52.704;6.752;2023-06-14T02:39:08;3.78;;;0.85;;
53710;SDS011;39605;52.704;6.752;2023-06-14T02:41:35;3.83;;;0.70;;
53710;SDS011;39605;52.704;6.752;2023-06-14T02:44:01;2.75;;;0.80;;
53710;SDS011;39605;52.704;6.752;2023-06-14T02:46:27;2.92;;;0.80;;
53710;SDS011;39605;52.704;6.752;2023-06-14T02:48:53;1.65;;;0.85;;
53710;SDS011;39605;52.704;6.752;2023-06-14T02:51:19;3.90;;;0.90;;
53710;SDS011;39605;52.704;6.752;2023-06-14T02:53:45;2.65;;;0.88;;
53710;SDS011;39605;52.704;6.752;2023-06-14T02:56:11;0.93;;;0.50;;
53710;SDS011;39605;52.704;6.752;2023-06-14T02:58:38;2.35;;;0.70;;
53710;SDS011;39605;52.704;6.752;2023-06-14T03:01:05;7.07;;;0.70;;
53710;SDS011;39605;52.704;6.752;2023-06-14T03:03:32;3.90;;;0.80;;
53710;SDS011;39605;52.704;6.752;2023-06-14T03:05:59;2.30;;;0.95;;
53710;SDS011;39605;52.704;6.752;2023-06-14T03:08:30;3.67;;;0.98;;
53710;SDS011;39605;52.704;6.752;2023-06-14T03:10:58;2.25;;;0.85;;
53710;SDS011;39605;52.704;6.752;2023-06-14T03:13:24;3.65;;;0.70;;
53710;SDS011;39605;52.704;6.752;2023-06-14T03:15:51;1.75;;;0.73;;
53710;SDS011;39605;52.704;6.752;2023-06-14T03:18:17;3.45;;;0.90;;
53710;SDS011;39605;52.704;6.752;2023-06-14T03:20:44;4.45;;;1.00;;
53710;SDS011;39605;52.704;6.752;2023-06-14T03:23:13;1.92;;;0.73;;
53710;SDS011;39605;52.704;6.752;2023-06-14T03:25:39;1.88;;;0.80;;
53710;SDS011;39605;52.704;6.752;2023-06-14T03:28:07;1.30;;;0.80;;
53710;SDS011;39605;52.704;6.752;2023-06-14T03:30:33;5.00;;;1.15;;
53710;SDS011;39605;52.704;6.752;2023-06-14T03:32:59;1.92;;;0.80;;
53710;SDS011;39605;52.704;6.752;2023-06-14T03:35:29;1.48;;;1.00;;
53710;SDS011;39605;52.704;6.752;2023-06-14T03:37:55;2.33;;;0.80;;
53710;SDS011;39605;52.704;6.752;2023-06-14T03:40:21;3.22;;;0.88;;
53710;SDS011;39605;52.704;6.752;2023-06-14T03:42:51;2.60;;;0.80;;
53710;SDS011;39605;52.704;6.752;2023-06-14T03:45:17;5.47;;;1.02;;
53710;SDS011;39605;52.704;6.752;2023-06-14T03:47:44;3.05;;;0.90;;
53710;SDS011;39605;52.704;6.752;2023-06-14T03:50:10;2.55;;;0.80;;
53710;SDS011;39605;52.704;6.752;2023-06-14T03:52:36;3.33;;;0.82;;
53710;SDS011;39605;52.704;6.752;2023-06-14T03:55:02;3.20;;;0.95;;
53710;SDS011;39605;52.704;6.752;2023-06-14T03:57:29;6.47;;;0.88;;
53710;SDS011;39605;52.704;6.752;2023-06-14T03:59:55;3.53;;;1.05;;
53710;SDS011;39605;52.704;6.752;2023-06-14T04:02:21;1.55;;;1.20;;
53710;SDS011;39605;52.704;6.752;2023-06-14T04:04:48;5.13;;;1.42;;
53710;SDS011;39605;52.704;6.752;2023-06-14T04:07:15;2.22;;;0.82;;
53710;SDS011;39605;52.704;6.752;2023-06-14T04:09:44;3.00;;;0.90;;
53710;SDS011;39605;52.704;6.752;2023-06-14T04:12:10;1.98;;;1.15;;
53710;SDS011;39605;52.704;6.752;2023-06-14T04:14:37;3.40;;;0.90;;
53710;SDS011;39605;52.704;6.752;2023-06-14T04:17:03;2.63;;;0.90;;
53710;SDS011;39605;52.704;6.752;2023-06-14T04:19:29;2.90;;;0.90;;
53710;SDS011;39605;52.704;6.752;2023-06-14T04:21:55;4.40;;;0.93;;
53710;SDS011;39605;52.704;6.752;2023-06-14T04:24:22;2.55;;;0.90;;
53710;SDS011;39605;52.704;6.752;2023-06-14T04:26:48;4.97;;;1.10;;
53710;SDS011;39605;52.704;6.752;2023-06-14T04:29:16;4.28;;;1.13;;
53710;SDS011;39605;52.704;6.752;2023-06-14T04:31:45;3.53;;;1.20;;
53710;SDS011;39605;52.704;6.752;2023-06-14T04:34:14;3.92;;;1.10;;
53710;SDS011;39605;52.704;6.752;2023-06-14T04:36:43;3.15;;;0.82;;
53710;SDS011;39605;52.704;6.752;2023-06-14T04:39:20;4.30;;;1.10;;
53710;SDS011;39605;52.704;6.752;2023-06-14T04:41:46;4.72;;;0.98;;
53710;SDS011;39605;52.704;6.752;2023-06-14T04:44:12;3.75;;;1.00;;
53710;SDS011;39605;52.704;6.752;2023-06-14T04:46:42;2.33;;;0.88;;
53710;SDS011;39605;52.704;6.752;2023-06-14T04:49:14;3.20;;;1.10;;
53710;SDS011;39605;52.704;6.752;2023-06-14T04:51:44;2.10;;;1.40;;
53710;SDS011;39605;52.704;6.752;2023-06-14T04:54:12;3.00;;;0.93;;
53710;SDS011;39605;52.704;6.752;2023-06-14T04:56:43;3.58;;;1.27;;
53710;SDS011;39605;52.704;6.752;2023-06-14T04:59:11;2.97;;;1.00;;
53710;SDS011;39605;52.704;6.752;2023-06-14T05:01:38;2.05;;;1.00;;
53710;SDS011;39605;52.704;6.752;2023-06-14T05:04:04;2.15;;;1.80;;
53710;SDS011;39605;52.704;6.752;2023-06-14T05:06:30;3.35;;;1.42;;
53710;SDS011;39605;52.704;6.752;2023-06-14T05:08:56;3.05;;;1.55;;
53710;SDS011;39605;52.704;6.752;2023-06-14T05:11:22;7.55;;;1.80;;
53710;SDS011;39605;52.704;6.752;2023-06-14T05:13:52;4.22;;;2.05;;
53710;SDS011;39605;52.704;6.752;2023-06-14T05:16:18;3.55;;;1.65;;
53710;SDS011;39605;52.704;6.752;2023-06-14T05:18:45;4.45;;;1.98;;
53710;SDS011;39605;52.704;6.752;2023-06-14T05:21:12;2.30;;;2.03;;
53710;SDS011;39605;52.704;6.752;2023-06-14T05:23:43;3.60;;;1.90;;
53710;SDS011;39605;52.704;6.752;2023-06-14T05:26:10;5.63;;;2.28;;
53710;SDS011;39605;52.704;6.752;2023-06-14T05:28:36;3.25;;;1.35;;
53710;SDS011;39605;52.704;6.752;2023-06-14T05:31:02;2.58;;;1.83;;
53710;SDS011;39605;52.704;6.752;2023-06-14T05:33:28;2.38;;;1.33;;
53710;SDS011;39605;52.704;6.752;2023-06-14T05:35:54;3.75;;;1.10;;
53710;SDS011;39605;52.704;6.752;2023-06-14T05:38:20;2.45;;;1.25;;
53710;SDS011;39605;52.704;6.752;2023-06-14T05:40:47;1.50;;;1.17;;
53710;SDS011;39605;52.704;6.752;2023-06-14T05:43:13;3.55;;;0.90;;
53710;SDS011;39605;52.704;6.752;2023-06-14T05:45:39;2.75;;;0.90;;
53710;SDS011;39605;52.704;6.752;2023-06-14T05:48:05;4.68;;;1.10;;
53710;SDS011;39605;52.704;6.752;2023-06-14T05:50:31;2.70;;;1.20;;
53710;SDS011;39605;52.704;6.752;2023-06-14T05:52:57;2.38;;;0.90;;
53710;SDS011;39605;52.704;6.752;2023-06-14T05:55:23;2.78;;;0.90;;
53710;SDS011;39605;52.704;6.752;2023-06-14T05:57:50;4.45;;;0.80;;
53710;SDS011;39605;52.704;6.752;2023-06-14T06:00:18;1.05;;;0.85;;
53710;SDS011;39605;52.704;6.752;2023-06-14T06:02:45;2.13;;;0.70;;
53710;SDS011;39605;52.704;6.752;2023-06-14T06:05:12;6.03;;;0.90;;
53710;SDS011;39605;52.704;6.752;2023-06-14T06:07:40;1.77;;;1.00;;
53710;SDS011;39605;52.704;6.752;2023-06-14T06:10:07;2.78;;;0.65;;
53710;SDS011;39605;52.704;6.752;2023-06-14T06:12:33;3.03;;;0.70;;
53710;SDS011;39605;52.704;6.752;2023-06-14T06:14:59;4.78;;;0.85;;
53710;SDS011;39605;52.704;6.752;2023-06-14T06:17:26;1.67;;;0.65;;
53710;SDS011;39605;52.704;6.752;2023-06-14T06:19:52;1.83;;;0.77;;
53710;SDS011;39605;52.704;6.752;2023-06-14T06:22:18;2.53;;;0.50;;
53710;SDS011;39605;52.704;6.752;2023-06-14T06:24:44;2.03;;;0.73;;
53710;SDS011;39605;52.704;6.752;2023-06-14T06:27:11;1.13;;;0.82;;
53710;SDS011;39605;52.704;6.752;2023-06-14T06:29:37;3.35;;;0.70;;
53710;SDS011;39605;52.704;6.752;2023-06-14T06:32:04;1.20;;;0.57;;
53710;SDS011;39605;52.704;6.752;2023-06-14T06:34:30;2.53;;;0.50;;
53710;SDS011;39605;52.704;6.752;2023-06-14T06:36:56;2.38;;;0.60;;
53710;SDS011;39605;52.704;6.752;2023-06-14T06:39:22;3.88;;;0.65;;
53710;SDS011;39605;52.704;6.752;2023-06-14T06:41:48;2.35;;;0.70;;
53710;SDS011;39605;52.704;6.752;2023-06-14T06:44:14;3.50;;;0.50;;
53710;SDS011;39605;52.704;6.752;2023-06-14T06:46:40;2.42;;;0.60;;
53710;SDS011;39605;52.704;6.752;2023-06-14T06:49:07;3.47;;;0.75;;
53710;SDS011;39605;52.704;6.752;2023-06-14T06:51:40;4.38;;;0.68;;
53710;SDS011;39605;52.704;6.752;2023-06-14T06:54:12;1.92;;;0.60;;
53710;SDS011;39605;52.704;6.752;2023-06-14T06:56:38;1.92;;;0.65;;
53710;SDS011;39605;52.704;6.752;2023-06-14T06:59:07;2.88;;;0.73;;
53710;SDS011;39605;52.704;6.752;2023-06-14T07:01:33;4.88;;;0.60;;
53710;SDS011;39605;52.704;6.752;2023-06-14T07:04:01;2.63;;;0.50;;
53710;SDS011;39605;52.704;6.752;2023-06-14T07:06:28;6.03;;;0.60;;
53710;SDS011;39605;52.704;6.752;2023-06-14T07:08:55;4.03;;;0.60;;
53710;SDS011;39605;52.704;6.752;2023-06-14T07:11:26;2.95;;;0.50;;
53710;SDS011;39605;52.704;6.752;2023-06-14T07:13:52;3.03;;;0.60;;
53710;SDS011;39605;52.704;6.752;2023-06-14T07:16:18;2.53;;;0.40;;
53710;SDS011;39605;52.704;6.752;2023-06-14T07:18:45;3.17;;;0.50;;
53710;SDS011;39605;52.704;6.752;2023-06-14T07:21:11;4.05;;;1.05;;
53710;SDS011;39605;52.704;6.752;2023-06-14T07:23:37;2.90;;;0.50;;
53710;SDS011;39605;52.704;6.752;2023-06-14T07:26:03;1.80;;;0.40;;
53710;SDS011;39605;52.704;6.752;2023-06-14T07:28:30;1.55;;;0.50;;
53710;SDS011;39605;52.704;6.752;2023-06-14T07:30:56;2.00;;;0.50;;
53710;SDS011;39605;52.704;6.752;2023-06-14T07:33:22;1.02;;;0.40;;
53710;SDS011;39605;52.704;6.752;2023-06-14T07:35:48;1.60;;;0.57;;
53710;SDS011;39605;52.704;6.752;2023-06-14T07:38:15;1.00;;;0.52;;
53710;SDS011;39605;52.704;6.752;2023-06-14T07:40:41;3.13;;;0.40;;
53710;SDS011;39605;52.704;6.752;2023-06-14T07:43:07;3.42;;;0.60;;
53710;SDS011;39605;52.704;6.752;2023-06-14T07:45:33;3.88;;;0.40;;
53710;SDS011;39605;52.704;6.752;2023-06-14T07:47:59;4.78;;;0.50;;
53710;SDS011;39605;52.704;6.752;2023-06-14T07:50:25;3.70;;;0.50;;
53710;SDS011;39605;52.704;6.752;2023-06-14T07:52:51;3.15;;;0.50;;
53710;SDS011;39605;52.704;6.752;2023-06-14T07:55:17;1.65;;;0.40;;
53710;SDS011;39605;52.704;6.752;2023-06-14T07:57:44;1.63;;;0.40;;
53710;SDS011;39605;52.704;6.752;2023-06-14T08:00:10;0.60;;;0.30;;
53710;SDS011;39605;52.704;6.752;2023-06-14T08:02:40;2.28;;;0.40;;
53710;SDS011;39605;52.704;6.752;2023-06-14T08:05:06;3.33;;;0.40;;
53710;SDS011;39605;52.704;6.752;2023-06-14T08:07:33;1.20;;;0.40;;
53710;SDS011;39605;52.704;6.752;2023-06-14T08:10:00;8.18;;;0.77;;
53710;SDS011;39605;52.704;6.752;2023-06-14T08:12:26;0.70;;;0.30;;
53710;SDS011;39605;52.704;6.752;2023-06-14T08:14:52;1.40;;;0.30;;
53710;SDS011;39605;52.704;6.752;2023-06-14T08:17:18;1.52;;;0.30;;
53710;SDS011;39605;52.704;6.752;2023-06-14T08:19:44;2.25;;;0.40;;
53710;SDS011;39605;52.704;6.752;2023-06-14T08:22:10;1.77;;;0.30;;
53710;SDS011;39605;52.704;6.752;2023-06-14T08:24:37;1.33;;;0.40;;
53710;SDS011;39605;52.704;6.752;2023-06-14T08:27:04;2.03;;;0.32;;
53710;SDS011;39605;52.704;6.752;2023-06-14T08:29:31;1.63;;;0.40;;
53710;SDS011;39605;52.704;6.752;2023-06-14T08:31:57;1.50;;;0.35;;
53710;SDS011;39605;52.704;6.752;2023-06-14T08:34:23;0.85;;;0.30;;
53710;SDS011;39605;52.704;6.752;2023-06-14T08:36:50;0.88;;;0.30;;
53710;SDS011;39605;52.704;6.752;2023-06-14T08:39:16;0.73;;;0.35;;
53710;SDS011;39605;52.704;6.752;2023-06-14T08:41:46;0.50;;;0.30;;
53710;SDS011;39605;52.704;6.752;2023-06-14T08:44:14;4.07;;;0.30;;
53710;SDS011;39605;52.704;6.752;2023-06-14T08:46:41;1.80;;;0.30;;
53710;SDS011;39605;52.704;6.752;2023-06-14T08:49:07;2.22;;;0.30;;
53710;SDS011;39605;52.704;6.752;2023-06-14T08:51:34;1.85;;;0.30;;
53710;SDS011;39605;52.704;6.752;2023-06-14T08:54:01;3.63;;;0.28;;
53710;SDS011;39605;52.704;6.752;2023-06-14T08:56:29;4.22;;;0.30;;
53710;SDS011;39605;52.704;6.752;2023-06-14T08:58:55;1.00;;;0.50;;
53710;SDS011;39605;52.704;6.752;2023-06-14T09:01:22;1.20;;;0.30;;
53710;SDS011;39605;52.704;6.752;2023-06-14T09:03:49;1.80;;;0.30;;
53710;SDS011;39605;52.704;6.752;2023-06-14T09:06:16;3.70;;;0.30;;
53710;SDS011;39605;52.704;6.752;2023-06-14T09:08:44;3.53;;;0.30;;
53710;SDS011;39605;52.704;6.752;2023-06-14T09:11:13;1.98;;;0.30;;
53710;SDS011;39605;52.704;6.752;2023-06-14T09:13:40;2.22;;;0.20;;
53710;SDS011;39605;52.704;6.752;2023-06-14T09:16:07;0.38;;;0.30;;
53710;SDS011;39605;52.704;6.752;2023-06-14T09:18:34;2.22;;;0.30;;
53710;SDS011;39605;52.704;6.752;2023-06-14T09:21:00;0.45;;;0.30;;
53710;SDS011;39605;52.704;6.752;2023-06-14T09:23:26;5.30;;;0.30;;
53710;SDS011;39605;52.704;6.752;2023-06-14T09:25:52;1.75;;;0.30;;
53710;SDS011;39605;52.704;6.752;2023-06-14T09:28:18;2.95;;;0.40;;
53710;SDS011;39605;52.704;6.752;2023-06-14T09:30:47;0.95;;;0.20;;
53710;SDS011;39605;52.704;6.752;2023-06-14T09:33:17;0.55;;;0.30;;
53710;SDS011;39605;52.704;6.752;2023-06-14T09:35:45;3.80;;;0.30;;
53710;SDS011;39605;52.704;6.752;2023-06-14T09:38:11;2.00;;;0.20;;
53710;SDS011;39605;52.704;6.752;2023-06-14T09:40:37;2.58;;;0.40;;
53710;SDS011;39605;52.704;6.752;2023-06-14T09:43:07;4.03;;;0.30;;
53710;SDS011;39605;52.704;6.752;2023-06-14T09:45:36;1.25;;;0.30;;
53710;SDS011;39605;52.704;6.752;2023-06-14T09:48:04;1.05;;;0.20;;
53710;SDS011;39605;52.704;6.752;2023-06-14T09:50:32;2.05;;;0.30;;
53710;SDS011;39605;52.704;6.752;2023-06-14T09:53:00;1.27;;;0.20;;
53710;SDS011;39605;52.704;6.752;2023-06-14T09:55:28;1.38;;;0.30;;
53710;SDS011;39605;52.704;6.752;2023-06-14T09:57:56;1.23;;;0.30;;
53710;SDS011;39605;52.704;6.752;2023-06-14T10:00:23;2.95;;;0.20;;
53710;SDS011;39605;52.704;6.752;2023-06-14T10:02:54;2.72;;;0.40;;
53710;SDS011;39605;52.704;6.752;2023-06-14T10:05:24;3.38;;;0.52;;
53710;SDS011;39605;52.704;6.752;2023-06-14T10:08:04;4.70;;;0.30;;
53710;SDS011;39605;52.704;6.752;2023-06-14T10:10:33;2.83;;;0.30;;
53710;SDS011;39605;52.704;6.752;2023-06-14T10:13:00;1.23;;;0.30;;
53710;SDS011;39605;52.704;6.752;2023-06-14T10:15:38;1.75;;;0.20;;
53710;SDS011;39605;52.704;6.752;2023-06-14T10:18:30;1.35;;;0.25;;
53710;SDS011;39605;52.704;6.752;2023-06-14T10:23:35;4.00;;;0.30;;
53710;SDS011;39605;52.704;6.752;2023-06-14T10:26:03;4.57;;;0.28;;
53710;SDS011;39605;52.704;6.752;2023-06-14T10:28:29;0.93;;;0.28;;
53710;SDS011;39605;52.704;6.752;2023-06-14T10:31:10;1.15;;;0.20;;
53710;SDS011;39605;52.704;6.752;2023-06-14T10:36:35;0.65;;;0.22;;
53710;SDS011;39605;52.704;6.752;2023-06-14T10:41:31;0.95;;;0.32;;
53710;SDS011;39605;52.704;6.752;2023-06-14T10:46:47;3.17;;;0.55;;
53710;SDS011;39605;52.704;6.752;2023-06-14T10:49:17;3.58;;;0.30;;
53710;SDS011;39605;52.704;6.752;2023-06-14T10:51:50;2.05;;;0.30;;
53710;SDS011;39605;52.704;6.752;2023-06-14T10:54:16;2.95;;;0.28;;
53710;SDS011;39605;52.704;6.752;2023-06-14T10:56:49;3.38;;;0.52;;
53710;SDS011;39605;52.704;6.752;2023-06-14T10:59:16;0.60;;;0.23;;
53710;SDS011;39605;52.704;6.752;2023-06-14T11:04:56;1.45;;;0.30;;
53710;SDS011;39605;52.704;6.752;2023-06-14T11:12:42;1.30;;;0.20;;
53710;SDS011;39605;52.704;6.752;2023-06-14T11:15:11;1.98;;;0.30;;
53710;SDS011;39605;52.704;6.752;2023-06-14T11:17:39;1.45;;;0.30;;
53710;SDS011;39605;52.704;6.752;2023-06-14T11:20:16;2.25;;;0.30;;
53710;SDS011;39605;52.704;6.752;2023-06-14T11:22:42;1.60;;;0.28;;
53710;SDS011;39605;52.704;6.752;2023-06-14T11:25:09;0.50;;;0.30;;
53710;SDS011;39605;52.704;6.752;2023-06-14T11:27:37;3.50;;;0.30;;
53710;SDS011;39605;52.704;6.752;2023-06-14T11:30:06;2.00;;;0.30;;
53710;SDS011;39605;52.704;6.752;2023-06-14T11:32:32;0.88;;;0.20;;
53710;SDS011;39605;52.704;6.752;2023-06-14T11:34:59;2.13;;;0.30;;
53710;SDS011;39605;52.704;6.752;2023-06-14T11:37:25;2.00;;;0.30;;
53710;SDS011;39605;52.704;6.752;2023-06-14T11:39:55;1.35;;;0.20;;
53710;SDS011;39605;52.704;6.752;2023-06-14T11:42:22;3.92;;;0.30;;
53710;SDS011;39605;52.704;6.752;2023-06-14T11:44:52;2.50;;;0.20;;
53710;SDS011;39605;52.704;6.752;2023-06-14T11:47:19;2.35;;;0.25;;
53710;SDS011;39605;52.704;6.752;2023-06-14T11:49:45;1.58;;;0.30;;
53710;SDS011;39605;52.704;6.752;2023-06-14T11:52:12;2.25;;;0.30;;
53710;SDS011;39605;52.704;6.752;2023-06-14T11:54:38;7.28;;;0.40;;
53710;SDS011;39605;52.704;6.752;2023-06-14T11:57:06;1.52;;;0.30;;
53710;SDS011;39605;52.704;6.752;2023-06-14T11:59:39;1.60;;;0.30;;
53710;SDS011;39605;52.704;6.752;2023-06-14T12:02:05;2.70;;;0.20;;
53710;SDS011;39605;52.704;6.752;2023-06-14T12:04:32;3.20;;;0.30;;
53710;SDS011;39605;52.704;6.752;2023-06-14T12:07:19;2.95;;;0.30;;
53710;SDS011;39605;52.704;6.752;2023-06-14T12:12:17;1.83;;;0.30;;
53710;SDS011;39605;52.704;6.752;2023-06-14T12:14:43;2.58;;;0.20;;
53710;SDS011;39605;52.704;6.752;2023-06-14T12:17:09;2.35;;;0.30;;
53710;SDS011;39605;52.704;6.752;2023-06-14T12:19:42;2.72;;;0.30;;
53710;SDS011;39605;52.704;6.752;2023-06-14T12:22:09;1.33;;;0.30;;
53710;SDS011;39605;52.704;6.752;2023-06-14T12:24:35;1.63;;;0.30;;
53710;SDS011;39605;52.704;6.752;2023-06-14T12:27:01;1.67;;;0.30;;
53710;SDS011;39605;52.704;6.752;2023-06-14T12:29:29;0.65;;;0.28;;
53710;SDS011;39605;52.704;6.752;2023-06-14T12:31:55;2.63;;;0.30;;
53710;SDS011;39605;52.704;6.752;2023-06-14T12:34:25;1.25;;;0.20;;
53710;SDS011;39605;52.704;6.752;2023-06-14T12:36:52;3.10;;;0.30;;
53710;SDS011;39605;52.704;6.752;2023-06-14T12:39:19;1.95;;;0.20;;
53710;SDS011;39605;52.704;6.752;2023-06-14T12:41:46;1.85;;;0.30;;
53710;SDS011;39605;52.704;6.752;2023-06-14T12:44:12;2.55;;;0.25;;
53710;SDS011;39605;52.704;6.752;2023-06-14T12:46:39;4.15;;;0.30;;
53710;SDS011;39605;52.704;6.752;2023-06-14T12:49:09;1.60;;;0.30;;
53710;SDS011;39605;52.704;6.752;2023-06-14T12:51:38;1.90;;;0.30;;
53710;SDS011;39605;52.704;6.752;2023-06-14T12:54:04;2.15;;;0.30;;
53710;SDS011;39605;52.704;6.752;2023-06-14T12:56:30;2.60;;;0.30;;
53710;SDS011;39605;52.704;6.752;2023-06-14T12:58:57;1.13;;;0.30;;
53710;SDS011;39605;52.704;6.752;2023-06-14T13:01:23;1.55;;;0.30;;
53710;SDS011;39605;52.704;6.752;2023-06-14T13:03:50;1.10;;;0.30;;
53710;SDS011;39605;52.704;6.752;2023-06-14T13:06:20;3.42;;;0.28;;
53710;SDS011;39605;52.704;6.752;2023-06-14T13:08:50;3.58;;;0.20;;
53710;SDS011;39605;52.704;6.752;2023-06-14T13:11:20;2.75;;;0.30;;
53710;SDS011;39605;52.704;6.752;2023-06-14T13:13:48;1.00;;;0.20;;
53710;SDS011;39605;52.704;6.752;2023-06-14T13:16:14;1.70;;;0.30;;
53710;SDS011;39605;52.704;6.752;2023-06-14T13:18:42;2.58;;;0.30;;
53710;SDS011;39605;52.704;6.752;2023-06-14T13:21:08;1.30;;;0.30;;
53710;SDS011;39605;52.704;6.752;2023-06-14T13:23:35;0.30;;;0.20;;
53710;SDS011;39605;52.704;6.752;2023-06-14T13:26:04;0.40;;;0.20;;
53710;SDS011;39605;52.704;6.752;2023-06-14T13:28:35;1.02;;;0.20;;
53710;SDS011;39605;52.704;6.752;2023-06-14T13:31:01;2.70;;;0.20;;
53710;SDS011;39605;52.704;6.752;2023-06-14T13:33:28;3.80;;;0.40;;
53710;SDS011;39605;52.704;6.752;2023-06-14T13:35:54;0.65;;;0.30;;
53710;SDS011;39605;52.704;6.752;2023-06-14T13:38:20;3.65;;;0.32;;
53710;SDS011;39605;52.704;6.752;2023-06-14T13:40:46;1.25;;;0.20;;
53710;SDS011;39605;52.704;6.752;2023-06-14T13:43:12;0.73;;;0.20;;
53710;SDS011;39605;52.704;6.752;2023-06-14T13:45:38;1.02;;;0.30;;
53710;SDS011;39605;52.704;6.752;2023-06-14T13:48:04;1.33;;;0.20;;
53710;SDS011;39605;52.704;6.752;2023-06-14T13:50:36;2.42;;;0.20;;
53710;SDS011;39605;52.704;6.752;2023-06-14T13:53:02;1.55;;;0.30;;
53710;SDS011;39605;52.704;6.752;2023-06-14T13:55:30;2.38;;;0.30;;
53710;SDS011;39605;52.704;6.752;2023-06-14T13:58:04;1.08;;;0.30;;
53710;SDS011;39605;52.704;6.752;2023-06-14T14:00:30;0.95;;;0.20;;
53710;SDS011;39605;52.704;6.752;2023-06-14T14:02:57;1.73;;;0.20;;
53710;SDS011;39605;52.704;6.752;2023-06-14T14:05:25;3.80;;;0.28;;
53710;SDS011;39605;52.704;6.752;2023-06-14T14:07:57;0.73;;;0.20;;
53710;SDS011;39605;52.704;6.752;2023-06-14T14:10:24;2.97;;;0.20;;
53710;SDS011;39605;52.704;6.752;2023-06-14T14:12:55;3.33;;;0.25;;
53710;SDS011;39605;52.704;6.752;2023-06-14T14:15:22;0.68;;;0.22;;
53710;SDS011;39605;52.704;6.752;2023-06-14T14:17:50;0.65;;;0.30;;
53710;SDS011;39605;52.704;6.752;2023-06-14T14:20:16;1.90;;;0.20;;
53710;SDS011;39605;52.704;6.752;2023-06-14T14:22:43;1.58;;;0.25;;
53710;SDS011;39605;52.704;6.752;2023-06-14T14:25:09;0.63;;;0.22;;
53710;SDS011;39605;52.704;6.752;2023-06-14T14:27:36;1.38;;;0.75;;
53710;SDS011;39605;52.704;6.752;2023-06-14T14:30:02;2.00;;;0.30;;
53710;SDS011;39605;52.704;6.752;2023-06-14T14:32:28;2.97;;;0.20;;
53710;SDS011;39605;52.704;6.752;2023-06-14T14:35:02;1.13;;;0.20;;
53710;SDS011;39605;52.704;6.752;2023-06-14T14:37:33;5.53;;;0.20;;
53710;SDS011;39605;52.704;6.752;2023-06-14T14:39:59;0.88;;;0.20;;
53710;SDS011;39605;52.704;6.752;2023-06-14T14:42:25;1.58;;;0.28;;
53710;SDS011;39605;52.704;6.752;2023-06-14T14:44:53;1.27;;;0.30;;
53710;SDS011;39605;52.704;6.752;2023-06-14T14:47:19;0.50;;;0.20;;
53710;SDS011;39605;52.704;6.752;2023-06-14T14:49:45;1.02;;;0.30;;
53710;SDS011;39605;52.704;6.752;2023-06-14T14:52:13;2.50;;;0.30;;
53710;SDS011;39605;52.704;6.752;2023-06-14T14:54:40;0.77;;;0.30;;
53710;SDS011;39605;52.704;6.752;2023-06-14T14:57:06;0.82;;;0.30;;
53710;SDS011;39605;52.704;6.752;2023-06-14T14:59:32;2.22;;;0.30;;
53710;SDS011;39605;52.704;6.752;2023-06-14T15:01:58;2.63;;;0.30;;
53710;SDS011;39605;52.704;6.752;2023-06-14T15:04:24;0.93;;;0.28;;
53710;SDS011;39605;52.704;6.752;2023-06-14T15:06:50;0.32;;;0.20;;
53710;SDS011;39605;52.704;6.752;2023-06-14T15:09:16;0.40;;;0.20;;
53710;SDS011;39605;52.704;6.752;2023-06-14T15:11:45;1.90;;;0.20;;
53710;SDS011;39605;52.704;6.752;2023-06-14T15:14:14;2.33;;;0.22;;
53710;SDS011;39605;52.704;6.752;2023-06-14T15:16:40;1.02;;;0.30;;